Time;durP1;ratioP1;P1;durP2;ratioP2;P2;SDS_P1;SDS_P2;PMS_P1;PMS_P2;Temp;Humidity;BMP_temperature;BMP_pressure;BME280_temperature;BME280_humidity;BME280_pressure;Samples;Min_cycle;Max_cycle;Signal;HPM_P1;HPM_P2
2022/01/29 00:01:37;;;;;;;35.97;19.80;;;7.30;99.90;;;;;;5053828;28;20100;-82
2022/01/29 00:04:02;;;;;;;33.70;18.58;;;7.20;99.90;;;;;;5053815;28;20064;-81
2022/01/29 00:06:28;;;;;;;33.50;20.00;;;7.30;99.90;;;;;;5054875;28;20036;-82
2022/01/29 00:08:56;;;;;;;29.75;20.30;;;7.20;99.90;;;;;;5064281;28;20105;-80
2022/01/29 00:11:27;;;;;;;30.52;20.05;;;7.20;99.90;;;;;;5056713;28;20048;-82
2022/01/29 00:13:53;;;;;;;32.22;19.48;;;7.30;99.90;;;;;;5036755;28;20064;-82
2022/01/29 00:16:18;;;;;;;30.85;18.30;;;7.30;99.90;;;;;;5052394;28;20037;-81
2022/01/29 00:18:44;;;;;;;31.85;19.27;;;7.30;99.90;;;;;;5043722;28;20096;-81
2022/01/29 00:21:10;;;;;;;35.78;23.17;;;7.30;99.90;;;;;;5043962;28;20049;-81
2022/01/29 00:23:35;;;;;;;33.70;22.33;;;7.30;99.90;;;;;;5045107;28;20565;-81
2022/01/29 00:26:01;;;;;;;38.08;21.05;;;7.30;99.90;;;;;;5043521;28;20127;-80
2022/01/29 00:28:27;;;;;;;36.10;24.63;;;7.30;99.90;;;;;;5042655;28;20068;-81
2022/01/29 00:30:53;;;;;;;35.15;22.30;;;7.30;99.90;;;;;;5042422;28;20036;-80
2022/01/29 00:33:19;;;;;;;39.25;25.40;;;7.30;99.90;;;;;;5042044;28;20044;-80
2022/01/29 00:35:44;;;;;;;42.58;26.27;;;7.30;99.90;;;;;;5041682;28;20041;-81
2022/01/29 00:38:10;;;;;;;41.17;27.00;;;7.30;99.90;;;;;;5042784;28;20041;-81
2022/01/29 00:40:38;;;;;;;33.40;22.98;;;7.30;99.90;;;;;;5040983;28;20048;-80
2022/01/29 00:43:05;;;;;;;36.45;23.25;;;7.20;99.90;;;;;;5041965;28;20622;-81
2022/01/29 00:45:31;;;;;;;41.40;25.30;;;7.20;99.90;;;;;;5043133;28;20130;-81
2022/01/29 00:47:57;;;;;;;47.22;30.85;;;7.20;99.90;;;;;;5024475;28;20037;-81
2022/01/29 00:50:23;;;;;;;43.15;28.75;;;7.20;99.90;;;;;;5041960;28;20438;-81
2022/01/29 00:52:49;;;;;;;43.22;28.33;;;7.20;99.90;;;;;;5054168;28;20406;-81
2022/01/29 00:55:14;;;;;;;41.42;27.75;;;7.20;99.90;;;;;;5050654;28;20101;-81
2022/01/29 00:57:40;;;;;;;45.97;28.33;;;7.10;99.90;;;;;;5057404;28;20400;-81
2022/01/29 01:00:12;;;;;;;53.88;32.97;;;7.10;99.90;;;;;;5058090;28;20045;-82
2022/01/29 01:02:38;;;;;;;43.97;27.90;;;7.10;99.90;;;;;;5049533;28;20095;-84
2022/01/29 01:05:04;;;;;;;55.67;37.03;;;7.10;99.90;;;;;;5056333;28;20051;-84
2022/01/29 01:07:30;;;;;;;47.53;30.88;;;7.00;99.90;;;;;;5047193;28;20124;-83
2022/01/29 01:09:56;;;;;;;49.53;33.90;;;7.00;99.90;;;;;;5039616;28;20083;-84
2022/01/29 01:12:23;;;;;;;59.60;35.60;;;7.00;99.90;;;;;;5039081;28;20072;-84
2022/01/29 01:14:49;;;;;;;47.30;27.95;;;7.00;99.90;;;;;;5040691;28;20095;-83
2022/01/29 01:17:14;;;;;;;56.65;31.70;;;7.00;99.90;;;;;;5038513;28;20388;-84
2022/01/29 01:19:40;;;;;;;60.50;36.03;;;6.90;99.90;;;;;;5039538;28;20087;-84
2022/01/29 01:22:05;;;;;;;49.42;29.17;;;6.90;99.90;;;;;;5023772;28;20559;-84
2022/01/29 01:24:31;;;;;;;48.45;30.90;;;6.90;99.90;;;;;;5038826;28;20045;-82
2022/01/29 01:26:57;;;;;;;55.60;33.58;;;6.90;99.90;;;;;;5037340;28;20041;-84
2022/01/29 01:29:22;;;;;;;61.42;35.88;;;6.90;99.90;;;;;;5037804;28;20045;-84
2022/01/29 01:31:48;;;;;;;48.20;28.92;;;6.90;99.90;;;;;;5022035;28;20618;-83
2022/01/29 01:34:19;;;;;;;58.20;35.15;;;6.80;99.90;;;;;;5052111;28;20510;-84
2022/01/29 01:36:53;;;;;;;51.47;31.25;;;6.90;99.90;;;;;;5042368;28;20033;-84
2022/01/29 01:39:23;;;;;;;65.03;35.92;;;6.90;99.90;;;;;;5036745;28;20072;-84
2022/01/29 01:41:57;;;;;;;61.40;35.90;;;6.90;99.90;;;;;;5023052;28;20037;-83
2022/01/29 01:44:22;;;;;;;57.47;34.90;;;6.90;99.90;;;;;;5036411;28;20048;-82
2022/01/29 01:46:48;;;;;;;56.20;32.03;;;6.90;99.90;;;;;;5036044;28;20041;-84
2022/01/29 01:49:15;;;;;;;56.63;30.50;;;6.90;99.90;;;;;;5035642;28;20080;-83
2022/01/29 01:51:42;;;;;;;56.38;32.17;;;7.00;99.90;;;;;;5020892;28;20075;-85
2022/01/29 01:54:08;;;;;;;51.22;30.00;;;7.00;99.90;;;;;;5036281;28;20119;-83
2022/01/29 01:56:33;;;;;;;51.78;30.30;;;7.00;99.90;;;;;;5036204;28;20537;-83
2022/01/29 01:58:59;;;;;;;48.92;26.65;;;7.10;99.90;;;;;;5040302;28;20041;-83
2022/01/29 02:01:24;;;;;;;56.00;32.70;;;7.10;99.90;;;;;;5056127;28;20427;-83
2022/01/29 02:03:50;;;;;;;49.92;28.15;;;7.10;99.90;;;;;;5052143;28;20045;-84
2022/01/29 02:06:17;;;;;;;53.20;29.15;;;7.10;99.90;;;;;;5036523;28;20464;-85
2022/01/29 02:08:43;;;;;;;53.05;28.13;;;7.20;99.90;;;;;;5039171;28;20049;-83
2022/01/29 02:11:10;;;;;;;44.00;26.25;;;7.20;99.90;;;;;;5039600;28;20509;-82
2022/01/29 02:13:35;;;;;;;50.05;31.73;;;7.20;99.90;;;;;;5038728;28;20411;-82
2022/01/29 02:16:02;;;;;;;57.10;32.65;;;7.30;99.90;;;;;;5038070;28;20047;-83
2022/01/29 02:18:29;;;;;;;48.30;28.17;;;7.30;99.90;;;;;;5038465;28;20448;-84
2022/01/29 02:20:54;;;;;;;50.88;30.30;;;7.30;99.90;;;;;;5052800;28;20033;-82
2022/01/29 02:23:20;;;;;;;56.15;30.27;;;7.30;99.90;;;;;;5053914;28;20458;-82
2022/01/29 02:25:47;;;;;;;55.03;31.13;;;7.30;99.90;;;;;;5053842;28;20102;-83
2022/01/29 02:28:16;;;;;;;52.40;29.67;;;7.30;99.90;;;;;;5053490;28;20403;-83
2022/01/29 02:30:44;;;;;;;45.67;27.80;;;7.40;99.90;;;;;;5055424;28;20414;-81
2022/01/29 02:33:14;;;;;;;51.00;30.42;;;7.40;99.90;;;;;;5057516;28;20037;-82
2022/01/29 02:35:45;;;;;;;56.10;30.73;;;7.40;99.90;;;;;;5046439;28;20044;-82
2022/01/29 02:38:13;;;;;;;51.08;32.33;;;7.40;99.90;;;;;;5036709;28;20033;-80
2022/01/29 02:40:50;;;;;;;51.75;28.88;;;7.40;99.90;;;;;;5036431;28;20475;-82
2022/01/29 02:43:29;;;;;;;51.97;29.08;;;7.40;99.90;;;;;;5037848;28;20043;-82
2022/01/29 02:45:56;;;;;;;56.10;30.05;;;7.40;99.90;;;;;;5053360;28;20080;-81
2022/01/29 02:48:22;;;;;;;52.33;31.02;;;7.50;99.90;;;;;;5036812;28;20408;-82
2022/01/29 02:50:49;;;;;;;46.55;25.40;;;7.50;99.90;;;;;;5020075;28;20124;-81
2022/01/29 02:53:15;;;;;;;49.17;26.42;;;7.50;99.90;;;;;;5036541;28;20487;-82
2022/01/29 02:55:40;;;;;;;59.85;33.65;;;7.50;99.90;;;;;;5036320;28;20037;-82
2022/01/29 02:58:06;;;;;;;56.10;30.70;;;7.50;99.90;;;;;;5036577;28;20037;-83
2022/01/29 03:00:33;;;;;;;48.58;28.27;;;7.50;99.90;;;;;;5036592;28;20048;-82
2022/01/29 03:02:59;;;;;;;51.25;29.20;;;7.50;99.90;;;;;;5036443;28;20053;-82
2022/01/29 03:05:24;;;;;;;51.42;27.98;;;7.50;99.90;;;;;;5036036;28;20135;-80
2022/01/29 03:07:50;;;;;;;46.38;25.13;;;7.60;99.90;;;;;;5035969;28;20120;-82
2022/01/29 03:10:16;;;;;;;57.85;31.63;;;7.60;99.90;;;;;;5038436;28;20064;-82
2022/01/29 03:12:42;;;;;;;49.55;28.73;;;7.60;99.90;;;;;;5052554;28;20037;-82
2022/01/29 03:15:09;;;;;;;51.95;28.13;;;7.60;99.90;;;;;;5053275;28;20087;-81
2022/01/29 03:17:35;;;;;;;59.13;29.08;;;7.60;99.90;;;;;;5052460;28;20043;-82
2022/01/29 03:20:00;;;;;;;54.00;31.20;;;7.60;99.90;;;;;;5042421;28;20093;-81
2022/01/29 03:22:26;;;;;;;54.97;29.42;;;7.70;99.90;;;;;;5035987;28;20435;-82
2022/01/29 03:24:52;;;;;;;52.50;26.67;;;7.70;99.90;;;;;;5035964;28;20095;-82
2022/01/29 03:27:17;;;;;;;45.80;25.73;;;7.70;99.90;;;;;;5035874;28;20049;-83
2022/01/29 03:29:43;;;;;;;40.13;21.92;;;7.70;99.90;;;;;;5035889;28;20048;-82
2022/01/29 03:32:09;;;;;;;40.90;22.63;;;7.80;99.90;;;;;;5035987;28;20041;-81
2022/01/29 03:34:34;;;;;;;40.83;22.75;;;7.80;99.90;;;;;;5036321;28;20075;-81
2022/01/29 03:37:01;;;;;;;44.63;23.35;;;7.80;99.90;;;;;;5035760;28;20442;-80
2022/01/29 03:39:28;;;;;;;48.97;24.35;;;7.90;99.90;;;;;;5039686;28;20095;-82
2022/01/29 03:41:59;;;;;;;45.35;21.95;;;7.90;99.90;;;;;;5035304;28;20053;-82
2022/01/29 03:44:25;;;;;;;40.63;21.83;;;8.00;99.90;;;;;;5035679;28;20049;-81
2022/01/29 03:46:50;;;;;;;43.92;24.00;;;8.00;99.90;;;;;;5035665;28;20170;-82
2022/01/29 03:49:16;;;;;;;40.45;22.17;;;8.00;99.90;;;;;;5044872;28;20079;-81
2022/01/29 03:51:41;;;;;;;38.35;19.48;;;8.00;99.90;;;;;;5035773;28;20130;-79
2022/01/29 03:54:07;;;;;;;32.03;19.00;;;8.00;99.90;;;;;;5036030;28;20052;-80
2022/01/29 03:56:33;;;;;;;42.65;22.17;;;8.10;99.90;;;;;;5019593;28;20033;-82
2022/01/29 03:58:58;;;;;;;37.25;21.02;;;8.10;99.90;;;;;;5035578;28;20045;-80
2022/01/29 04:01:24;;;;;;;34.28;21.20;;;8.10;99.90;;;;;;5043608;28;20048;-81
2022/01/29 04:03:49;;;;;;;38.80;21.13;;;8.20;99.90;;;;;;5046511;28;20033;-81
2022/01/29 04:06:15;;;;;;;43.03;21.23;;;8.20;99.90;;;;;;5019425;28;20094;-81
2022/01/29 04:08:42;;;;;;;42.10;20.48;;;8.20;99.90;;;;;;5035215;28;20130;-81
2022/01/29 04:11:11;;;;;;;36.38;22.05;;;8.20;99.90;;;;;;5035947;28;20045;-82
2022/01/29 04:13:38;;;;;;;42.92;22.45;;;8.20;99.90;;;;;;5035470;28;20126;-82
2022/01/29 04:16:04;;;;;;;40.22;21.33;;;8.30;99.90;;;;;;5035323;28;20045;-80
2022/01/29 04:18:29;;;;;;;39.60;20.95;;;8.30;99.90;;;;;;5024950;28;20041;-83
2022/01/29 04:20:55;;;;;;;39.28;20.27;;;8.30;99.90;;;;;;5035092;28;20045;-82
2022/01/29 04:23:20;;;;;;;31.95;19.33;;;8.30;99.90;;;;;;5034593;28;20047;-83
2022/01/29 04:25:46;;;;;;;43.78;22.83;;;8.30;99.90;;;;;;5034307;28;20040;-81
2022/01/29 04:28:13;;;;;;;47.47;23.88;;;8.30;99.90;;;;;;5034329;28;20206;-82
2022/01/29 04:30:50;;;;;;;34.17;19.70;;;8.30;99.90;;;;;;5033767;28;20049;-82
2022/01/29 04:33:28;;;;;;;43.30;22.20;;;8.30;99.90;;;;;;5040487;28;20107;-81
2022/01/29 04:35:55;;;;;;;38.55;21.00;;;8.30;99.90;;;;;;5034263;28;20058;-82
2022/01/29 04:38:20;;;;;;;34.88;18.20;;;8.30;99.90;;;;;;5017881;28;20120;-81
2022/01/29 04:40:46;;;;;;;34.85;20.15;;;8.30;99.90;;;;;;5034358;28;20634;-82
2022/01/29 04:43:12;;;;;;;29.00;19.92;;;8.30;99.90;;;;;;5034020;28;20438;-81
2022/01/29 04:45:39;;;;;;;35.65;21.83;;;8.30;99.90;;;;;;5034328;28;20136;-82
2022/01/29 04:48:04;;;;;;;38.42;20.83;;;8.40;99.90;;;;;;5034433;28;20402;-81
2022/01/29 04:50:30;;;;;;;30.30;19.23;;;8.40;99.90;;;;;;5039609;28;20036;-81
2022/01/29 04:52:55;;;;;;;33.80;19.65;;;8.40;99.90;;;;;;5050785;28;20049;-82
2022/01/29 04:55:21;;;;;;;29.40;18.30;;;8.40;99.90;;;;;;5051089;28;20496;-83
2022/01/29 04:57:46;;;;;;;32.20;20.77;;;8.40;99.90;;;;;;5050254;28;20479;-82
2022/01/29 05:00:21;;;;;;;33.95;19.50;;;8.40;99.90;;;;;;5040621;28;20049;-83
2022/01/29 05:02:52;;;;;;;29.50;16.37;;;8.40;99.90;;;;;;5043178;28;20037;-83
2022/01/29 05:05:18;;;;;;;33.38;21.25;;;8.40;99.90;;;;;;5033707;28;20302;-82
2022/01/29 05:07:44;;;;;;;32.70;17.92;;;8.40;99.90;;;;;;5033901;28;20041;-81
2022/01/29 05:10:11;;;;;;;30.67;18.25;;;8.40;99.90;;;;;;5034282;28;20069;-83
2022/01/29 05:12:54;;;;;;;38.58;20.08;;;8.40;99.90;;;;;;5033472;28;20116;-81
2022/01/29 05:28:42;;;;;;;27.05;17.25;;;8.50;99.90;;;;;;5033533;28;20048;-80
2022/01/29 05:31:08;;;;;;;27.35;14.48;;;8.50;99.90;;;;;;5046537;28;20048;-83
2022/01/29 05:33:33;;;;;;;29.45;15.82;;;8.50;99.90;;;;;;5033679;28;20044;-82
2022/01/29 05:35:59;;;;;;;33.08;18.20;;;8.50;99.90;;;;;;5033992;28;20037;-82
2022/01/29 05:38:27;;;;;;;30.55;17.42;;;8.50;99.90;;;;;;5033577;28;20044;-82
2022/01/29 05:40:53;;;;;;;31.83;18.35;;;8.50;99.90;;;;;;5033782;28;20040;-82
2022/01/29 05:43:19;;;;;;;33.95;19.40;;;8.60;99.90;;;;;;5017982;28;20045;-83
2022/01/29 05:45:44;;;;;;;32.38;16.90;;;8.60;99.90;;;;;;5053639;28;20056;-82
2022/01/29 05:48:10;;;;;;;29.50;17.33;;;8.60;99.90;;;;;;5038308;28;20038;-81
2022/01/29 05:50:35;;;;;;;23.83;16.27;;;8.60;99.90;;;;;;5037391;28;20037;-83
2022/01/29 05:53:01;;;;;;;26.17;15.77;;;8.60;99.90;;;;;;5037397;28;20071;-81
2022/01/29 05:55:27;;;;;;;31.38;19.13;;;8.60;99.90;;;;;;5037179;28;20476;-82
2022/01/29 05:57:52;;;;;;;25.90;15.40;;;8.60;99.90;;;;;;5036523;28;20036;-82
2022/01/29 06:00:18;;;;;;;27.00;15.48;;;8.60;99.90;;;;;;5053879;28;20514;-82
2022/01/29 06:02:43;;;;;;;30.42;16.20;;;8.60;99.90;;;;;;5039049;28;20040;-82
2022/01/29 06:05:09;;;;;;;28.05;15.70;;;8.60;99.90;;;;;;5037958;28;20052;-82
2022/01/29 06:07:34;;;;;;;29.75;17.13;;;8.60;99.90;;;;;;5036716;28;20489;-82
2022/01/29 06:10:00;;;;;;;28.20;15.93;;;8.70;99.90;;;;;;5037304;28;20411;-82
2022/01/29 06:12:25;;;;;;;25.55;14.55;;;8.70;99.90;;;;;;5037560;28;20488;-82
2022/01/29 06:14:51;;;;;;;30.08;17.20;;;8.70;99.90;;;;;;5037347;28;20064;-82
2022/01/29 06:17:17;;;;;;;27.63;17.67;;;8.70;99.90;;;;;;5036804;28;20462;-82
2022/01/29 06:19:42;;;;;;;27.33;16.67;;;8.70;99.90;;;;;;5036606;28;20560;-82
2022/01/29 06:22:11;;;;;;;24.85;16.42;;;8.70;99.90;;;;;;5020210;28;20466;-81
2022/01/29 06:24:37;;;;;;;26.48;15.73;;;8.70;99.90;;;;;;5052284;28;20518;-81
2022/01/29 06:27:03;;;;;;;28.77;16.05;;;8.70;99.90;;;;;;5049146;28;20037;-81
2022/01/29 06:29:28;;;;;;;27.67;13.65;;;8.70;99.90;;;;;;5038649;28;20037;-82
2022/01/29 06:31:54;;;;;;;29.35;17.15;;;8.80;99.90;;;;;;5020216;28;20428;-81
2022/01/29 06:34:19;;;;;;;40.80;16.65;;;8.80;99.90;;;;;;5037392;28;20083;-81
2022/01/29 06:36:45;;;;;;;26.13;14.45;;;8.80;99.90;;;;;;5036148;28;20037;-82
2022/01/29 06:39:10;;;;;;;20.33;13.20;;;8.80;99.90;;;;;;5037016;28;20119;-82
2022/01/29 06:41:36;;;;;;;22.45;14.10;;;8.80;99.90;;;;;;5036716;28;20041;-82
2022/01/29 06:44:02;;;;;;;26.55;15.68;;;8.90;99.90;;;;;;5036570;28;20037;-83
2022/01/29 06:46:27;;;;;;;24.13;13.63;;;8.90;99.90;;;;;;5050985;28;20041;-82
2022/01/29 06:48:53;;;;;;;25.85;13.65;;;8.80;99.90;;;;;;5053550;28;20080;-81
2022/01/29 06:51:18;;;;;;;23.65;14.38;;;8.80;99.90;;;;;;5052808;28;20049;-81
2022/01/29 06:53:44;;;;;;;22.40;13.18;;;8.90;99.90;;;;;;5024235;28;20072;-82
2022/01/29 06:56:10;;;;;;;20.63;12.27;;;8.90;99.90;;;;;;5035931;28;20518;-82
2022/01/29 06:58:35;;;;;;;17.75;11.90;;;8.90;99.90;;;;;;5036056;28;20041;-82
2022/01/29 07:01:02;;;;;;;18.80;11.98;;;8.90;99.90;;;;;;5048181;28;20090;-82
2022/01/29 07:03:27;;;;;;;23.25;14.05;;;8.90;99.90;;;;;;5025410;28;20068;-82
2022/01/29 07:05:53;;;;;;;22.70;14.20;;;8.90;99.90;;;;;;5035807;28;20102;-82
2022/01/29 07:08:18;;;;;;;21.08;12.13;;;8.90;99.90;;;;;;5035602;28;20049;-83
2022/01/29 07:10:45;;;;;;;17.13;10.10;;;8.90;99.90;;;;;;5035269;28;20475;-83
2022/01/29 07:13:11;;;;;;;19.45;11.85;;;8.90;99.90;;;;;;5035033;28;20048;-82
2022/01/29 07:15:37;;;;;;;16.98;11.18;;;8.90;99.90;;;;;;5019920;28;20434;-82
2022/01/29 07:18:03;;;;;;;18.92;10.70;;;8.90;99.90;;;;;;5036111;28;20039;-83
2022/01/29 07:20:29;;;;;;;26.88;12.38;;;9.00;99.90;;;;;;5035560;28;20045;-83
2022/01/29 07:22:54;;;;;;;18.48;8.95;;;9.00;99.90;;;;;;5036190;28;20118;-83
2022/01/29 07:25:20;;;;;;;15.98;9.30;;;9.00;99.90;;;;;;5035064;28;20049;-81
2022/01/29 07:27:45;;;;;;;18.35;8.20;;;9.10;99.90;;;;;;5035711;28;20044;-82
2022/01/29 07:30:11;;;;;;;13.02;8.65;;;9.10;99.90;;;;;;5041087;28;20049;-82
2022/01/29 07:32:45;;;;;;;12.05;7.28;;;9.10;99.90;;;;;;5048753;28;20116;-82
2022/01/29 07:35:11;;;;;;;12.50;7.82;;;9.10;99.90;;;;;;5051125;28;20086;-80
2022/01/29 07:37:37;;;;;;;13.75;8.15;;;9.10;99.90;;;;;;5051827;28;20033;-81
2022/01/29 07:40:03;;;;;;;17.40;9.10;;;9.10;99.90;;;;;;5052847;28;20166;-82
2022/01/29 07:42:29;;;;;;;13.50;8.77;;;9.10;99.90;;;;;;5052481;28;20060;-81
2022/01/29 07:44:54;;;;;;;18.05;9.35;;;9.10;99.90;;;;;;5039247;28;20049;-82
2022/01/29 07:47:20;;;;;;;20.48;10.32;;;9.10;99.90;;;;;;5036015;28;20221;-83
2022/01/29 07:49:45;;;;;;;19.92;11.07;;;9.00;99.90;;;;;;5036994;28;20064;-83
2022/01/29 07:52:11;;;;;;;19.63;9.40;;;9.00;99.90;;;;;;5018655;28;20068;-82
2022/01/29 07:54:37;;;;;;;20.27;11.77;;;9.00;99.90;;;;;;5035395;28;20041;-82
2022/01/29 07:57:03;;;;;;;19.58;10.73;;;8.90;99.90;;;;;;5018259;28;20503;-81
2022/01/29 07:59:29;;;;;;;18.08;12.25;;;8.90;99.90;;;;;;5034621;28;20068;-82
2022/01/29 08:01:54;;;;;;;15.70;10.63;;;8.90;99.90;;;;;;5035139;28;20040;-82
2022/01/29 08:04:24;;;;;;;20.42;12.52;;;8.80;99.90;;;;;;5018361;28;20222;-82
2022/01/29 08:06:52;;;;;;;18.08;12.07;;;8.80;99.90;;;;;;5017340;28;20048;-81
2022/01/29 08:09:18;;;;;;;23.75;13.30;;;8.90;99.90;;;;;;5017936;28;20040;-81
2022/01/29 08:11:43;;;;;;;25.35;15.88;;;8.80;99.90;;;;;;5034690;28;20041;-82
2022/01/29 08:14:10;;;;;;;19.67;12.07;;;8.90;99.90;;;;;;5017957;28;20033;-83
2022/01/29 08:16:35;;;;;;;19.60;12.73;;;8.80;99.90;;;;;;5034514;28;20127;-83
2022/01/29 08:19:01;;;;;;;25.23;14.13;;;8.80;99.90;;;;;;5018288;28;20072;-82
2022/01/29 08:21:26;;;;;;;27.70;14.15;;;8.80;99.90;;;;;;5034641;28;20416;-82
2022/01/29 08:23:52;;;;;;;26.60;14.82;;;8.80;99.90;;;;;;5034323;28;20040;-83
2022/01/29 08:26:17;;;;;;;23.00;13.20;;;8.80;99.90;;;;;;5034326;28;20239;-83
2022/01/29 08:28:43;;;;;;;23.98;14.02;;;8.80;99.90;;;;;;5034453;28;20032;-82
2022/01/29 08:31:09;;;;;;;22.88;13.95;;;8.80;99.90;;;;;;5034754;28;20507;-81
2022/01/29 08:33:34;;;;;;;24.33;14.07;;;8.90;99.90;;;;;;5034234;28;20043;-83
2022/01/29 08:36:00;;;;;;;19.20;12.15;;;8.90;99.90;;;;;;5033983;28;20041;-82
2022/01/29 08:38:26;;;;;;;23.65;13.93;;;8.90;99.90;;;;;;5034331;28;20134;-83
2022/01/29 08:40:54;;;;;;;25.08;12.30;;;9.00;99.90;;;;;;5034430;28;20487;-83
2022/01/29 08:43:20;;;;;;;20.83;10.48;;;9.00;99.90;;;;;;5034569;28;20147;-82
2022/01/29 08:45:46;;;;;;;18.20;10.30;;;9.10;99.90;;;;;;5017402;28;20523;-82
2022/01/29 08:48:11;;;;;;;20.17;10.93;;;9.10;99.90;;;;;;5034157;28;20124;-82
2022/01/29 08:50:37;;;;;;;15.43;8.63;;;9.10;99.90;;;;;;5034200;28;20506;-83
2022/01/29 08:53:02;;;;;;;15.88;9.65;;;9.20;99.90;;;;;;5035126;28;20037;-83
2022/01/29 08:55:28;;;;;;;15.63;11.15;;;9.30;99.90;;;;;;5035195;28;20045;-82
2022/01/29 08:57:54;;;;;;;11.82;8.60;;;9.30;99.90;;;;;;5034160;28;20037;-81
2022/01/29 09:00:19;;;;;;;16.60;11.88;;;9.40;99.90;;;;;;5036292;28;20064;-82
2022/01/29 09:02:45;;;;;;;17.67;10.65;;;9.40;99.90;;;;;;5034782;28;20041;-82
2022/01/29 09:05:12;;;;;;;14.38;9.45;;;9.40;99.90;;;;;;5034324;28;20049;-83
2022/01/29 09:07:37;;;;;;;14.95;9.07;;;9.50;99.90;;;;;;5035870;28;20045;-82
2022/01/29 09:10:03;;;;;;;9.85;5.82;;;9.60;99.90;;;;;;5037214;28;20442;-82
2022/01/29 09:12:30;;;;;;;12.35;6.82;;;9.60;99.90;;;;;;5034384;28;20460;-83
2022/01/29 09:14:56;;;;;;;14.68;7.35;;;9.60;99.90;;;;;;5033820;28;20515;-83
2022/01/29 09:17:21;;;;;;;8.70;5.30;;;9.70;99.90;;;;;;5033816;28;20036;-82
2022/01/29 09:19:47;;;;;;;11.68;5.82;;;9.80;99.90;;;;;;5037855;28;20052;-81
2022/01/29 09:22:13;;;;;;;10.00;5.18;;;9.80;99.90;;;;;;5038095;28;20044;-83
2022/01/29 09:24:39;;;;;;;10.65;5.20;;;9.80;99.90;;;;;;5037692;28;20056;-81
2022/01/29 09:27:05;;;;;;;8.68;5.90;;;9.80;99.90;;;;;;5037178;28;20155;-83
2022/01/29 09:29:30;;;;;;;7.82;5.07;;;9.80;99.90;;;;;;5037776;28;20037;-82
2022/01/29 09:31:56;;;;;;;7.43;4.22;;;9.80;99.90;;;;;;5037692;28;20056;-83
2022/01/29 09:34:21;;;;;;;9.98;4.63;;;9.90;99.90;;;;;;5037948;28;20037;-82
2022/01/29 09:36:47;;;;;;;10.43;6.75;;;9.90;99.90;;;;;;5037621;28;20132;-81
2022/01/29 09:39:13;;;;;;;6.63;4.63;;;10.00;99.90;;;;;;5037734;28;20491;-83
2022/01/29 09:41:43;;;;;;;16.50;6.55;;;10.00;99.90;;;;;;5046223;28;20055;-83
2022/01/29 09:44:09;;;;;;;11.15;5.47;;;10.00;99.90;;;;;;5017374;28;20045;-82
2022/01/29 09:46:36;;;;;;;9.82;5.07;;;10.00;99.90;;;;;;5034816;28;20045;-81
2022/01/29 09:49:01;;;;;;;9.48;5.15;;;10.10;99.90;;;;;;5017908;28;20124;-82
2022/01/29 09:51:27;;;;;;;7.65;4.68;;;10.10;99.90;;;;;;5017315;28;20145;-82
2022/01/29 09:53:53;;;;;;;7.20;4.15;;;10.10;99.90;;;;;;5033925;28;20064;-82
2022/01/29 09:56:18;;;;;;;9.25;4.43;;;10.20;99.90;;;;;;5035270;28;20045;-81
2022/01/29 09:58:44;;;;;;;4.80;3.53;;;10.20;99.90;;;;;;5034663;28;20046;-82
2022/01/29 10:01:10;;;;;;;8.43;4.07;;;10.10;99.90;;;;;;5018326;28;20033;-83
2022/01/29 10:03:36;;;;;;;6.57;4.05;;;10.10;99.90;;;;;;5038920;28;20037;-83
2022/01/29 10:06:03;;;;;;;7.28;4.97;;;10.20;99.90;;;;;;5053954;28;20075;-83
2022/01/29 10:08:29;;;;;;;6.68;4.85;;;10.20;99.90;;;;;;5054626;28;20454;-82
2022/01/29 10:10:59;;;;;;;10.05;7.30;;;10.10;99.90;;;;;;5049105;28;20041;-81
2022/01/29 10:13:37;;;;;;;8.90;3.97;;;10.20;99.90;;;;;;5041286;28;20044;-81
2022/01/29 10:16:19;;;;;;;9.20;4.95;;;10.20;99.90;;;;;;5021152;28;20384;-83
2022/01/29 10:18:58;;;;;;;9.65;4.75;;;10.30;99.90;;;;;;5046307;28;20045;-82
2022/01/29 10:21:26;;;;;;;10.73;4.88;;;10.30;99.90;;;;;;5023472;28;20052;-81
2022/01/29 10:24:07;;;;;;;15.35;4.78;;;10.30;99.90;;;;;;5055292;28;20121;-81
2022/01/29 10:26:44;;;;;;;4.63;2.65;;;10.40;99.90;;;;;;5055723;28;20051;-80
2022/01/29 10:29:22;;;;;;;5.63;2.78;;;10.40;99.90;;;;;;5052494;28;20040;-80
2022/01/29 10:31:53;;;;;;;4.07;3.67;;;10.40;99.90;;;;;;5025914;28;20044;-80
2022/01/29 10:34:31;;;;;;;4.88;2.60;;;10.40;99.90;;;;;;5040732;28;20130;-80
2022/01/29 10:37:16;;;;;;;12.20;5.22;;;10.40;99.90;;;;;;5055732;28;20392;-79
2022/01/29 10:39:43;;;;;;;33.30;20.23;;;10.40;99.90;;;;;;5035297;28;20048;-81
2022/01/29 10:42:29;;;;;;;9.90;5.72;;;10.40;99.90;;;;;;5030787;28;20047;-80
2022/01/29 10:44:59;;;;;;;18.60;12.23;;;10.40;99.90;;;;;;5038249;28;20087;-80
2022/01/29 10:47:26;;;;;;;11.63;5.15;;;10.50;99.90;;;;;;5048317;28;20121;-81
2022/01/29 10:49:57;;;;;;;5.95;4.32;;;10.40;99.90;;;;;;5054551;28;20041;-80
2022/01/29 10:52:34;;;;;;;6.35;3.42;;;10.40;99.90;;;;;;5055259;28;20041;-79
2022/01/29 10:55:05;;;;;;;9.23;2.72;;;10.50;99.90;;;;;;5048918;28;20041;-80
2022/01/29 10:57:39;;;;;;;8.27;3.08;;;10.50;99.90;;;;;;5034960;28;20037;-81
2022/01/29 11:00:17;;;;;;;9.27;3.33;;;10.40;99.90;;;;;;5018649;28;20530;-80
2022/01/29 11:02:44;;;;;;;8.50;2.50;;;10.40;99.90;;;;;;5031895;28;20037;-79
2022/01/29 11:05:10;;;;;;;7.80;2.50;;;10.40;99.90;;;;;;5054766;28;20484;-80
2022/01/29 11:07:36;;;;;;;6.38;2.90;;;10.40;99.90;;;;;;5055236;28;20099;-80
2022/01/29 11:10:05;;;;;;;5.32;1.90;;;10.40;99.90;;;;;;5052747;28;20041;-81
2022/01/29 11:12:31;;;;;;;10.20;4.25;;;10.30;99.90;;;;;;5054733;28;20099;-80
2022/01/29 11:15:02;;;;;;;10.35;3.50;;;10.30;99.90;;;;;;5052998;28;20036;-80
2022/01/29 11:17:29;;;;;;;13.85;4.18;;;10.40;99.90;;;;;;5056966;28;20044;-80
2022/01/29 11:19:55;;;;;;;13.40;5.13;;;10.40;99.90;;;;;;5054842;28;20044;-80
2022/01/29 11:22:26;;;;;;;7.13;3.45;;;10.40;99.90;;;;;;5046197;28;20043;-81
2022/01/29 11:24:59;;;;;;;5.85;2.78;;;10.40;99.90;;;;;;5049747;28;20045;-80
2022/01/29 11:27:39;;;;;;;38.38;20.45;;;10.50;99.90;;;;;;5053893;28;20045;-79
2022/01/29 11:30:12;;;;;;;7.50;2.85;;;10.50;99.90;;;;;;5054431;28;20519;-80
2022/01/29 11:32:40;;;;;;;6.45;2.38;;;10.50;99.90;;;;;;5048015;28;20123;-80
2022/01/29 11:35:13;;;;;;;11.05;4.20;;;10.50;99.90;;;;;;5050050;28;20049;-80
2022/01/29 11:37:47;;;;;;;6.97;2.67;;;10.50;99.90;;;;;;5037719;28;20041;-80
2022/01/29 11:40:21;;;;;;;5.80;1.63;;;10.50;99.90;;;;;;5038156;28;20045;-80
2022/01/29 11:43:22;;;;;;;6.05;1.52;;;10.50;99.90;;;;;;5049169;28;20068;-80
2022/01/29 11:45:51;;;;;;;5.20;0.88;;;10.50;99.90;;;;;;5052997;28;20091;-80
2022/01/29 11:48:30;;;;;;;9.73;4.00;;;10.50;99.90;;;;;;5038754;28;20052;-80
2022/01/29 11:51:00;;;;;;;10.07;2.60;;;10.60;99.90;;;;;;5038897;28;20052;-80
2022/01/29 11:53:49;;;;;;;8.25;2.60;;;10.60;99.90;;;;;;5038633;28;20111;-80
2022/01/29 11:56:36;;;;;;;7.68;3.20;;;10.60;99.90;;;;;;5054065;28;20045;-80
2022/01/29 11:59:20;;;;;;;11.27;3.45;;;10.60;99.90;;;;;;5040948;28;20044;-80
2022/01/29 12:01:57;;;;;;;5.22;1.58;;;10.70;99.90;;;;;;5036120;28;20045;-80
2022/01/29 12:04:44;;;;;;;6.63;2.58;;;10.70;99.90;;;;;;5036699;28;20048;-80
2022/01/29 12:07:13;;;;;;;6.80;2.05;;;10.70;99.90;;;;;;5006448;28;20059;-80
2022/01/29 12:09:57;;;;;;;5.32;1.45;;;10.70;99.90;;;;;;5049999;28;20112;-80
2022/01/29 12:12:28;;;;;;;9.93;2.33;;;10.70;99.90;;;;;;5048655;28;20040;-80
2022/01/29 12:14:55;;;;;;;7.75;4.05;;;10.80;99.90;;;;;;5035095;28;20488;-80
2022/01/29 12:17:41;;;;;;;12.50;1.80;;;10.80;99.90;;;;;;5041659;28;20044;-80
2022/01/29 12:20:09;;;;;;;10.07;2.05;;;10.90;99.90;;;;;;5048770;28;20047;-80
2022/01/29 12:22:36;;;;;;;6.93;1.70;;;11.00;99.90;;;;;;5020325;28;20504;-80
2022/01/29 12:25:05;;;;;;;3.85;1.20;;;11.00;99.90;;;;;;5018274;28;20046;-80
2022/01/29 12:27:41;;;;;;;6.60;1.45;;;11.00;99.90;;;;;;5035478;28;20045;-80
2022/01/29 12:30:07;;;;;;;5.18;1.17;;;11.00;99.90;;;;;;5018188;28;20081;-80
2022/01/29 12:32:33;;;;;;;4.75;0.77;;;11.10;99.90;;;;;;5048922;28;20091;-79
2022/01/29 12:34:59;;;;;;;8.05;2.80;;;11.00;99.90;;;;;;5052554;28;20145;-79
2022/01/29 12:37:25;;;;;;;4.80;1.98;;;11.10;99.90;;;;;;5053033;28;20048;-79
2022/01/29 12:40:04;;;;;;;7.53;2.25;;;11.10;99.90;;;;;;5035760;28;20442;-80
2022/01/29 12:42:43;;;;;;;6.68;2.42;;;11.30;99.90;;;;;;5038638;28;20057;-79
2022/01/29 12:45:08;;;;;;;7.25;3.58;;;11.40;99.90;;;;;;5053122;28;20484;-80
2022/01/29 12:47:35;;;;;;;8.25;0.82;;;11.30;99.90;;;;;;5019902;28;20048;-80
2022/01/29 12:50:02;;;;;;;2.80;0.80;;;11.30;99.90;;;;;;5053446;28;20040;-80
2022/01/29 12:52:29;;;;;;;4.75;0.85;;;11.30;99.90;;;;;;5052122;28;20063;-79
2022/01/29 12:54:58;;;;;;;9.90;1.83;;;11.30;99.90;;;;;;5050788;28;20045;-79
2022/01/29 12:57:24;;;;;;;6.18;1.02;;;11.20;99.90;;;;;;5050354;28;20037;-79